createdAt,value
2019-05-02T00:01:00.921Z,101389.70
2019-05-02T00:03:55.182Z,101391.05
2019-05-02T00:07:05.558Z,101389.66
2019-05-02T00:09:52.971Z,101387.16
2019-05-02T00:12:26.469Z,101388.16
2019-05-02T00:15:05.411Z,101385.32
2019-05-02T00:17:41.897Z,101387.46
2019-05-02T00:20:15.282Z,101386.06
2019-05-02T00:22:52.467Z,101376.04
2019-05-02T00:25:23.164Z,101372.00
2019-05-02T00:27:52.830Z,101366.13
2019-05-02T00:30:23.074Z,101352.18
2019-05-02T00:32:53.261Z,101356.07
2019-05-02T00:35:24.110Z,101360.75
2019-05-02T00:37:57.462Z,101357.61
2019-05-02T00:40:27.821Z,101353.72
2019-05-02T00:42:58.180Z,101340.62
2019-05-02T00:45:28.985Z,101343.81
2019-05-02T00:48:09.815Z,101347.55
2019-05-02T00:50:40.682Z,101348.91
2019-05-02T00:53:12.296Z,101342.02
2019-05-02T00:55:46.108Z,101345.56
2019-05-02T00:58:15.639Z,101341.29
2019-05-02T01:01:07.606Z,101341.03
2019-05-02T01:03:38.892Z,101337.84
2019-05-02T01:06:13.955Z,101332.87
2019-05-02T01:08:42.034Z,101335.70
2019-05-02T01:11:12.002Z,101321.52
2019-05-02T01:13:50.290Z,101320.81
2019-05-02T01:22:17.272Z,101324.52
2019-05-02T01:24:54.581Z,101321.37
2019-05-02T01:28:00.193Z,101324.52
2019-05-02T01:30:46.188Z,101316.95
2019-05-02T01:33:28.125Z,101313.83
2019-05-02T01:36:22.072Z,101319.48
2019-05-02T01:38:54.040Z,101323.42
2019-05-02T01:41:29.204Z,101317.80
2019-05-02T01:46:46.718Z,101319.44
2019-05-02T01:49:21.320Z,101313.42
2019-05-02T01:51:49.332Z,101313.16
2019-05-02T01:54:21.972Z,101311.67
2019-05-02T01:56:51.845Z,101309.48
2019-05-02T01:59:29.147Z,101304.25
2019-05-02T02:01:57.910Z,101303.52
2019-05-02T02:04:31.486Z,101294.75
2019-05-02T02:07:06.776Z,101293.56
2019-05-02T02:09:38.938Z,101283.70
2019-05-02T02:12:09.831Z,101284.95
2019-05-02T02:14:40.939Z,101288.28
2019-05-02T02:17:15.468Z,101280.26
2019-05-02T02:19:50.235Z,101280.40
2019-05-02T02:22:39.343Z,101279.80
2019-05-02T02:25:32.232Z,101281.40
2019-05-02T02:28:02.274Z,101281.41
2019-05-02T02:30:36.120Z,101281.59
2019-05-02T02:34:32.642Z,101282.33
2019-05-02T02:36:01.407Z,101275.33
2019-05-02T02:51:37.330Z,101255.25
2019-05-02T02:54:54.466Z,101259.70
2019-05-02T02:57:31.917Z,101259.80
2019-05-02T03:00:07.673Z,101260.60
2019-05-02T03:02:35.766Z,101255.68
2019-05-02T03:05:05.829Z,101256.34
2019-05-02T03:07:36.023Z,101256.67
2019-05-02T03:10:48.127Z,101255.42
2019-05-02T03:14:09.588Z,101251.84
2019-05-02T03:16:46.933Z,101250.20
2019-05-02T03:19:21.465Z,101251.44
2019-05-02T03:22:01.066Z,101246.81
2019-05-02T03:27:53.101Z,101242.73
2019-05-02T03:30:32.310Z,101247.75
2019-05-02T03:33:27.500Z,101232.56
2019-05-02T03:36:00.649Z,101236.54
2019-05-02T03:38:36.311Z,101235.48
2019-05-02T03:41:13.347Z,101235.58
2019-05-02T03:43:45.472Z,101246.69
2019-05-02T03:47:02.302Z,101242.39
2019-05-02T03:49:29.639Z,101244.81
2019-05-02T03:52:02.852Z,101247.86
2019-05-02T03:54:32.448Z,101244.17
2019-05-02T03:57:03.185Z,101243.52
2019-05-02T03:59:38.738Z,101243.41
2019-05-02T04:02:04.960Z,101237.19
2019-05-02T04:04:35.985Z,101240.58
2019-05-02T04:07:21.521Z,101244.80
2019-05-02T04:10:01.708Z,101237.32
2019-05-02T04:12:45.211Z,101241.23
2019-05-02T04:15:35.176Z,101245.30
2019-05-02T04:18:08.378Z,101238.44
2019-05-02T04:20:43.497Z,101241.48
2019-05-02T04:23:14.515Z,101242.88
2019-05-02T04:25:48.949Z,101244.73
2019-05-02T04:28:19.781Z,101253.64
2019-05-02T04:30:51.318Z,101249.11
2019-05-02T04:33:22.745Z,101249.11
2019-05-02T04:35:52.458Z,101235.58
2019-05-02T04:38:31.644Z,101247.03
2019-05-02T04:40:58.969Z,101244.43
2019-05-02T04:43:28.746Z,101242.03
2019-05-02T04:46:00.191Z,101245.69
2019-05-02T04:48:34.654Z,101237.50
2019-05-02T04:51:10.116Z,101235.17
2019-05-02T04:53:41.161Z,101241.19
2019-05-02T04:56:07.125Z,101246.59
2019-05-02T04:58:39.752Z,101238.23
2019-05-02T05:01:06.347Z,101241.68
2019-05-02T05:03:37.646Z,101238.14
2019-05-02T05:06:11.914Z,101238.30
2019-05-02T05:08:38.821Z,101235.60
2019-05-02T05:11:09.186Z,101243.31
2019-05-02T05:13:38.558Z,101237.56
2019-05-02T05:16:14.866Z,101238.78
2019-05-02T05:18:39.197Z,101242.67
2019-05-02T05:21:10.682Z,101243.52
2019-05-02T05:24:10.723Z,101248.55
2019-05-02T05:26:43.014Z,101254.28
2019-05-02T05:29:13.946Z,101245.41
2019-05-02T05:31:43.915Z,101251.64
2019-05-02T05:34:17.358Z,101258.36
2019-05-02T05:36:48.163Z,101251.98
2019-05-02T05:39:17.826Z,101255.41
2019-05-02T05:41:52.353Z,101257.02
2019-05-02T05:44:23.288Z,101258.22
2019-05-02T05:46:51.724Z,101256.02
2019-05-02T05:49:21.828Z,101253.83
2019-05-02T05:51:54.554Z,101255.17
2019-05-02T05:54:22.717Z,101256.76
2019-05-02T05:56:52.507Z,101257.66
2019-05-02T05:59:26.866Z,101258.62
2019-05-02T06:01:53.239Z,101262.19
2019-05-02T06:04:24.081Z,101259.97
2019-05-02T06:06:58.382Z,101259.36
2019-05-02T06:09:26.243Z,101264.49
2019-05-02T06:11:56.677Z,101257.22
2019-05-02T06:14:26.521Z,101264.00
2019-05-02T06:16:56.203Z,101268.13
2019-05-02T06:19:26.901Z,101266.02
2019-05-02T06:21:57.562Z,101268.30
2019-05-02T06:24:27.011Z,101272.14
2019-05-02T06:26:56.437Z,101270.39
2019-05-02T06:29:25.995Z,101270.71
2019-05-02T06:31:56.945Z,101270.51
2019-05-02T06:34:26.530Z,101270.02
2019-05-02T06:36:55.918Z,101272.20
2019-05-02T06:39:27.052Z,101272.50
2019-05-02T06:41:57.495Z,101288.48
2019-05-02T06:44:27.629Z,101279.83
2019-05-02T06:46:59.130Z,101277.20
2019-05-02T06:49:28.398Z,101281.23
2019-05-02T06:51:57.842Z,101279.89
2019-05-02T06:54:27.353Z,101276.59
2019-05-02T06:56:58.192Z,101276.64
2019-05-02T06:59:27.528Z,101274.63
2019-05-02T07:01:58.760Z,101278.45
2019-05-02T07:04:28.265Z,101282.60
2019-05-02T07:06:59.589Z,101267.77
2019-05-02T07:09:39.840Z,101289.45
2019-05-02T07:12:01.563Z,101274.23
2019-05-02T07:14:31.394Z,101269.99
2019-05-02T07:17:18.459Z,101290.17
2019-05-02T07:19:51.739Z,101287.84
2019-05-02T07:22:21.988Z,101289.52
2019-05-02T07:24:51.508Z,101286.65
2019-05-02T07:27:21.160Z,101293.22
2019-05-02T07:29:52.184Z,101284.88
2019-05-02T07:32:24.896Z,101283.19
2019-05-02T07:34:53.233Z,101285.28
2019-05-02T07:37:22.875Z,101289.27
2019-05-02T07:39:52.848Z,101292.55
2019-05-02T07:42:22.409Z,101280.65
2019-05-02T07:44:51.921Z,101284.37
2019-05-02T07:47:21.305Z,101286.97
2019-05-02T07:49:50.727Z,101280.88
2019-05-02T07:52:20.344Z,101279.83
2019-05-02T07:54:49.884Z,101279.21
2019-05-02T07:57:19.375Z,101275.88
2019-05-02T07:59:49.901Z,101284.44
2019-05-02T08:02:20.376Z,101287.98
2019-05-02T08:04:50.726Z,101290.47
2019-05-02T08:07:25.901Z,101286.70
2019-05-02T08:09:54.640Z,101291.99
2019-05-02T08:12:24.072Z,101304.31
2019-05-02T08:14:53.484Z,101294.86
2019-05-02T08:17:22.958Z,101287.61
2019-05-02T08:19:52.357Z,101290.06
2019-05-02T08:22:21.815Z,101287.33
2019-05-02T08:24:51.241Z,101287.22
2019-05-02T08:27:39.614Z,101293.63
2019-05-02T08:30:19.876Z,101293.69
2019-05-02T08:32:49.551Z,101296.41
2019-05-02T08:35:18.910Z,101307.52
2019-05-02T08:37:48.305Z,101297.66
2019-05-02T08:40:17.734Z,101305.79
2019-05-02T08:42:47.238Z,101308.97
2019-05-02T08:45:16.790Z,101312.16
2019-05-02T08:47:46.363Z,101309.27
2019-05-02T08:50:16.106Z,101323.61
2019-05-02T08:52:47.930Z,101318.98
2019-05-02T08:55:18.858Z,101302.41
2019-05-02T08:57:48.262Z,101313.61
2019-05-02T09:00:18.067Z,101316.75
2019-05-02T09:02:47.454Z,101308.27
2019-05-02T09:05:18.316Z,101304.98
2019-05-02T09:07:47.714Z,101301.80
2019-05-02T09:10:17.233Z,101308.66
2019-05-02T09:12:46.597Z,101310.70
2019-05-02T09:15:17.155Z,101303.25
2019-05-02T09:17:54.905Z,101303.25
2019-05-02T09:20:20.747Z,101312.25
2019-05-02T09:22:52.263Z,101308.80
2019-05-02T09:25:21.961Z,101308.73
2019-05-02T09:27:52.687Z,101302.17
2019-05-02T09:30:25.655Z,101305.48
2019-05-02T09:32:57.115Z,101308.61
2019-05-02T09:35:25.149Z,101301.34
2019-05-02T09:37:56.573Z,101305.88
2019-05-02T09:40:25.959Z,101308.08
2019-05-02T09:42:58.563Z,101310.96
2019-05-02T09:45:37.359Z,101303.30
2019-05-02T09:48:08.915Z,101302.23
2019-05-02T09:50:38.639Z,101290.19
2019-05-02T09:53:14.867Z,101291.75
2019-05-02T09:55:43.804Z,101293.25
2019-05-02T09:58:14.794Z,101295.45
2019-05-02T10:01:05.220Z,101290.42
2019-05-02T10:03:34.639Z,101286.80
2019-05-02T10:06:08.449Z,101295.23
2019-05-02T10:08:38.215Z,101285.68
2019-05-02T10:11:06.435Z,101290.19
2019-05-02T10:13:35.855Z,101284.80
2019-05-02T10:16:05.619Z,101281.25
2019-05-02T10:18:35.156Z,101295.88
2019-05-02T10:21:07.744Z,101277.17
2019-05-02T10:23:36.389Z,101286.52
2019-05-02T10:26:06.249Z,101289.77
2019-05-02T10:28:35.692Z,101284.74
2019-05-02T10:31:05.541Z,101292.00
2019-05-02T10:33:37.628Z,101297.27
2019-05-02T10:36:11.857Z,101291.59
2019-05-02T10:38:39.751Z,101292.81
2019-05-02T10:41:12.105Z,101292.70
2019-05-02T10:43:42.427Z,101288.17
2019-05-02T10:46:37.777Z,101291.41
2019-05-02T10:49:13.836Z,101293.63
2019-05-02T10:51:49.051Z,101286.73
2019-05-02T10:54:14.538Z,101285.48
2019-05-02T10:56:43.970Z,101290.65
2019-05-02T10:59:13.464Z,101301.47
2019-05-02T11:02:02.513Z,101315.41
2019-05-02T11:04:36.201Z,101313.30
2019-05-02T11:07:05.786Z,101285.20
2019-05-02T11:09:35.296Z,101287.11
2019-05-02T11:12:07.906Z,101286.89
2019-05-02T11:14:56.411Z,101287.05
2019-05-02T11:17:32.331Z,101287.84
2019-05-02T11:20:05.290Z,101282.45
2019-05-02T11:22:34.751Z,101302.88
2019-05-02T11:25:04.602Z,101296.14
2019-05-02T11:27:34.269Z,101293.59
2019-05-02T11:30:04.083Z,101278.56
2019-05-02T11:32:33.734Z,101280.12
2019-05-02T11:35:03.480Z,101282.30
2019-05-02T11:37:33.083Z,101276.84
2019-05-02T11:40:06.199Z,101281.73
2019-05-02T11:42:33.890Z,101275.23
2019-05-02T11:45:03.429Z,101275.21
2019-05-02T11:47:33.004Z,101279.09
2019-05-02T11:50:02.743Z,101274.71
2019-05-02T11:52:37.192Z,101269.47
2019-05-02T11:55:03.481Z,101263.20
2019-05-02T11:57:33.272Z,101263.95
2019-05-02T12:00:05.181Z,101258.91
2019-05-02T12:03:02.123Z,101264.27
2019-05-02T12:05:39.166Z,101265.11
2019-05-02T12:08:09.382Z,101264.19
2019-05-02T12:10:39.251Z,101259.10
2019-05-02T12:13:11.907Z,101261.15
2019-05-02T12:15:43.922Z,101262.09
2019-05-02T12:18:12.116Z,101249.66
2019-05-02T12:20:42.573Z,101257.08
2019-05-02T12:23:16.252Z,101254.78
2019-05-02T12:25:46.364Z,101264.73
2019-05-02T12:28:16.488Z,101264.73
2019-05-02T12:30:46.265Z,101255.95
2019-05-02T12:33:15.913Z,101253.34
2019-05-02T12:35:45.885Z,101255.00
2019-05-02T12:38:16.829Z,101250.84
2019-05-02T12:40:46.393Z,101259.11
2019-05-02T12:43:15.790Z,101248.45
2019-05-02T12:45:48.109Z,101251.56
2019-05-02T12:48:17.648Z,101260.59
2019-05-02T12:50:47.985Z,101245.83
2019-05-02T12:53:18.876Z,101246.70
2019-05-02T12:55:48.454Z,101254.34
2019-05-02T12:58:18.214Z,101258.23
2019-05-02T13:00:47.716Z,101248.26
2019-05-02T13:03:36.308Z,101249.48
2019-05-02T13:06:06.107Z,101247.41
2019-05-02T13:08:48.869Z,101251.05
2019-05-02T13:11:46.442Z,101249.24
2019-05-02T13:14:19.733Z,101240.58
2019-05-02T13:16:53.489Z,101251.16
2019-05-02T13:19:36.792Z,101258.89
2019-05-02T13:22:06.790Z,101243.56
2019-05-02T13:24:42.434Z,101244.47
2019-05-02T13:27:14.992Z,101230.38
2019-05-02T13:29:44.924Z,101242.76
2019-05-02T13:32:33.501Z,101236.17
2019-05-02T13:35:32.339Z,101239.22
2019-05-02T13:38:05.279Z,101255.63
2019-05-02T13:40:41.808Z,101236.89
2019-05-02T13:43:12.517Z,101240.50
2019-05-02T13:46:08.316Z,101243.41
2019-05-02T13:48:37.909Z,101251.30
2019-05-02T13:51:12.565Z,101245.01
2019-05-02T13:54:02.255Z,101253.00
2019-05-02T13:56:52.884Z,101246.45
2019-05-02T13:59:23.187Z,101239.24
2019-05-02T14:01:54.804Z,101245.19
2019-05-02T14:04:27.908Z,101237.13
2019-05-02T14:06:58.797Z,101247.83
2019-05-02T14:10:01.973Z,101229.12
2019-05-02T14:12:45.237Z,101234.73
2019-05-02T14:15:22.230Z,101229.33
2019-05-02T14:17:53.112Z,101223.75
2019-05-02T14:20:22.996Z,101248.17
2019-05-02T14:22:54.781Z,101233.41
2019-05-02T14:25:24.399Z,101220.59
2019-05-02T14:27:55.765Z,101227.63
2019-05-02T14:30:37.236Z,101230.46
2019-05-02T14:33:08.905Z,101209.92
2019-05-02T14:35:38.385Z,101217.01
2019-05-02T14:38:08.681Z,101225.45
2019-05-02T14:40:46.572Z,101215.95
2019-05-02T14:43:38.138Z,101238.04
2019-05-02T14:46:06.650Z,101231.36
2019-05-02T14:48:45.093Z,101209.09
2019-05-02T14:51:16.902Z,101214.20
2019-05-02T14:53:43.674Z,101193.01
2019-05-02T14:56:37.536Z,101191.66
2019-05-02T14:59:09.150Z,101189.67
2019-05-02T15:01:42.111Z,101186.37
2019-05-02T15:04:12.902Z,101199.84
2019-05-02T15:06:47.241Z,101192.94
2019-05-02T15:09:22.641Z,101194.65
2019-05-02T15:11:58.890Z,101195.42
2019-05-02T15:14:35.666Z,101181.26
2019-05-02T15:17:08.587Z,101191.42
2019-05-02T15:19:42.626Z,101188.23
2019-05-02T15:22:12.496Z,101186.77
2019-05-02T15:24:43.492Z,101178.44
2019-05-02T15:27:17.801Z,101178.73
2019-05-02T15:29:46.022Z,101173.41
2019-05-02T15:32:41.996Z,101174.56
2019-05-02T15:35:31.893Z,101169.98
2019-05-02T15:38:06.382Z,101167.98
2019-05-02T15:40:49.731Z,101168.31
2019-05-02T16:16:47.846Z,101154.61
2019-05-02T16:19:44.154Z,101165.45
2019-05-02T16:22:38.391Z,101150.38
2019-05-02T16:25:42.905Z,101173.47
2019-05-02T16:28:15.896Z,101155.41
2019-05-02T16:31:17.044Z,101153.78
2019-05-02T16:33:42.700Z,101150.97
2019-05-02T16:36:26.004Z,101151.02
2019-05-02T16:38:56.979Z,101150.61
2019-05-02T16:41:33.976Z,101160.46
2019-05-02T16:56:42.385Z,101163.74
2019-05-02T16:59:12.732Z,101153.39
2019-05-02T17:01:52.643Z,101172.52
2019-05-02T17:05:12.719Z,101149.81
2019-05-02T17:08:44.487Z,101142.98
2019-05-02T17:11:39.522Z,101150.22
2019-05-02T17:20:33.668Z,101152.66
2019-05-02T17:26:13.329Z,101171.71
2019-05-02T17:28:47.215Z,101149.98
2019-05-02T17:43:03.044Z,101149.63
2019-05-02T17:48:10.406Z,101154.64
2019-05-02T17:53:53.631Z,101137.95
2019-05-02T17:56:59.139Z,101144.64
2019-05-02T18:02:55.110Z,101147.25
2019-05-02T18:05:26.499Z,101153.44
2019-05-02T18:07:54.120Z,101154.20
2019-05-02T18:12:59.977Z,101141.92
2019-05-02T18:19:01.859Z,101139.60
2019-05-02T18:28:21.114Z,101129.23
2019-05-02T18:30:57.337Z,101131.56
2019-05-02T18:36:57.548Z,101146.59
2019-05-02T18:39:34.805Z,101143.70
2019-05-02T18:42:26.650Z,101134.25
2019-05-02T18:45:25.275Z,101138.75
2019-05-02T18:48:21.854Z,101138.19
2019-05-02T18:51:21.821Z,101130.54
2019-05-02T18:54:07.521Z,101129.09
2019-05-02T18:56:41.141Z,101144.68
2019-05-02T18:59:05.416Z,101134.34
2019-05-02T19:01:38.911Z,101133.32
2019-05-02T19:04:13.113Z,101132.40
2019-05-02T19:06:53.024Z,101132.28
2019-05-02T19:12:34.024Z,101136.89
2019-05-02T19:15:21.520Z,101141.94
2019-05-02T19:17:52.992Z,101143.98
2019-05-02T19:32:57.840Z,101141.14
2019-05-02T19:41:14.202Z,101147.34
2019-05-02T20:25:37.493Z,101172.64
2019-05-02T20:28:03.391Z,101173.23
2019-05-02T20:30:33.150Z,101178.11
2019-05-02T20:33:05.222Z,101179.25
2019-05-02T20:35:34.232Z,101179.89
2019-05-02T20:38:24.257Z,101172.59
2019-05-02T20:40:55.946Z,101176.52
2019-05-02T20:43:44.641Z,101185.09
2019-05-02T20:46:14.574Z,101178.86
2019-05-02T20:48:46.798Z,101187.16
2019-05-02T20:51:53.503Z,101185.58
2019-05-02T20:54:28.300Z,101191.85
2019-05-02T20:57:03.398Z,101189.41
2019-05-02T20:59:55.527Z,101186.72
2019-05-02T21:02:51.797Z,101191.64
2019-05-02T21:05:42.782Z,101184.20
2019-05-02T21:08:38.478Z,101191.16
2019-05-02T21:11:21.132Z,101188.14
2019-05-02T21:13:52.497Z,101185.50
2019-05-02T21:16:46.446Z,101189.81
2019-05-02T21:22:49.742Z,101180.32
2019-05-02T21:25:28.849Z,101179.48
2019-05-02T21:28:27.774Z,101181.11
2019-05-02T21:31:02.795Z,101179.56
2019-05-02T21:33:42.757Z,101182.98
2019-05-02T21:36:16.098Z,101188.16
2019-05-02T21:38:53.663Z,101188.90
2019-05-02T21:41:26.001Z,101185.72
2019-05-02T21:43:56.838Z,101182.69
2019-05-02T21:46:29.161Z,101186.46
2019-05-02T21:49:00.039Z,101188.16
2019-05-02T21:51:48.733Z,101191.44
2019-05-02T21:54:53.287Z,101199.87
2019-05-02T21:57:32.202Z,101198.05
2019-05-02T22:01:08.738Z,101197.34
2019-05-02T22:09:58.294Z,101208.50
2019-05-02T22:13:04.007Z,101207.67
2019-05-02T22:18:49.469Z,101201.02
2019-05-02T22:21:22.875Z,101199.87
2019-05-02T22:24:08.131Z,101204.22
2019-05-02T22:26:29.503Z,101189.22
2019-05-02T22:29:02.186Z,101189.22
2019-05-02T22:32:47.859Z,101189.82
2019-05-02T22:35:18.841Z,101186.64
2019-05-02T22:41:48.725Z,101181.58
2019-05-02T22:44:53.792Z,101188.33
2019-05-02T22:47:47.234Z,101187.84
2019-05-02T22:50:17.872Z,101193.84
2019-05-02T22:52:47.464Z,101191.38
2019-05-02T22:55:19.289Z,101199.67
2019-05-02T22:57:48.831Z,101196.59
2019-05-02T23:00:18.748Z,101201.17
2019-05-02T23:02:48.309Z,101196.03
2019-05-02T23:05:17.946Z,101200.86
2019-05-02T23:07:47.500Z,101202.14
2019-05-02T23:10:17.358Z,101201.39
2019-05-02T23:12:47.288Z,101196.37
2019-05-02T23:15:16.986Z,101194.42
2019-05-02T23:17:46.666Z,101196.72
2019-05-02T23:20:16.364Z,101198.05
2019-05-02T23:22:45.859Z,101194.56
2019-05-02T23:25:42.230Z,101200.03
2019-05-02T23:28:18.471Z,101196.35
2019-05-02T23:30:48.174Z,101196.00
2019-05-02T23:33:17.753Z,101199.05
2019-05-02T23:35:47.288Z,101201.47
2019-05-02T23:38:18.767Z,101204.01
2019-05-02T23:40:48.846Z,101208.19
2019-05-02T23:43:18.570Z,101201.27
2019-05-02T23:45:48.225Z,101209.94
2019-05-02T23:48:17.946Z,101200.33
2019-05-02T23:50:47.766Z,101197.25
2019-05-02T23:53:17.430Z,101189.48
2019-05-02T23:55:47.181Z,101189.34
2019-05-02T23:58:16.853Z,101192.73
